Estación Meteorológica Peña el Pijo (Robertgarden) [ 12/09/19 16:25:47 CET ]

Fecha Hora Presion(HPa) Temp (°C) Humedad % Rocio (°C) Viento ( m/s) Direccion Lluvia 1Hora(mm) Lluvia 24H(mm) LLuvia Total(mm)
2019-Aug-21 01:01:46 1014.100 18.9 89 17.0       4.14 367.49
2019-Aug-21 02:01:46 1013.800 18.6 89 16.8       4.14 367.49
2019-Aug-21 03:01:46 1013.900 18.5 89 16.7       4.14 367.49
2019-Aug-21 04:01:40 1013.500 18.4 89 16.6       4.14 367.49
2019-Aug-21 05:09:07 1013.100 18.3 90 16.7       4.14 367.49
2019-Aug-21 06:02:04 1012.900 17.9 90 16.3       4.14 367.49
2019-Aug-21 07:01:40 1012.900 18.0 91 16.6       4.14 367.49
2019-Aug-21 08:01:41 1013.200 18.1 91 16.6       4.14 367.49
2019-Aug-21 09:01:46 1013.300 18.3 91 16.8       4.14 367.49
2019-Aug-21 10:02:03 1013.300 18.4 91 16.9       4.14 367.49
2019-Aug-21 11:01:47 1013.600 19.9 91 18.4       4.14 367.49
2019-Aug-21 12:01:41 1013.700 20.7 85 18.1 2.8 W   4.14 367.49
2019-Aug-21 13:01:46 1013.300 24.2 71 18.6 2.5 W   4.14 367.49
2019-Aug-21 14:01:43 1012.700 26.1 57 16.9     0.51 4.66 368.01
2019-Aug-21 15:01:49 1012.100 26.4 57 17.2       4.66 368.01
2019-Aug-21 16:01:52 1011.700 25.3 57 16.1       4.66 368.01
2019-Aug-21 17:01:44 1011.400 24.6 65 17.6       4.66 368.01
2019-Aug-21 18:01:29 1011.400 23.2 65 16.2       4.66 368.01
2019-Aug-21 19:01:51 1012.200 19.5 80 16.0     3.62 7.25 371.63
2019-Aug-21 20:01:48 1012.600 18.3 84 15.5       6.73 371.63
2019-Aug-21 21:01:48 1013.200 18.1 85 15.5       6.73 371.63
2019-Aug-21 22:01:42 1013.400 17.7 87 15.5       5.69 371.63
2019-Aug-21 23:01:51 1013.900 17.1 88 15.1       4.14 371.63

Temperatura Máxima:26°    Temperatura Mínima:17°
Presión Máxima:1014.100 Hpa    Presión Mínima:1011.400 Hpa


Volver